Key West International Airport
KEYW : now visible

Aeroporto :











RITROVATECI SU...

 
LOGIN :

Iscrizione | Disclaimer

   EN    FR    IT 

 









Sommario :    VFR   VFR Marginale   IFR   IFR Intensivo   IFR Molto Intensivo
Visibilità : 
Base nubi : 
>= 8 km
>= 3000ft
5 / 8 km
1000 / 3000 ft
1500m / 5 km
500 / 1000 ft
800 / 1500m
200 / 500 ft
< 800m
< 200 ft
Simboli :   Temporali  Nebbia  Neve Forte  Precipitazioni Forti  Vento > 20 kt







- Altitudine del aeroporto : 3 ft
- Codice IATA : EYW


KEYW - Key West International

ULTIMO METAR :
  • 201531Z 26008KT 3SM VCTS -RA SCT027 BKN034 OVC055 24/22 A3008 RMK AO2 RAB11 P0039 T02440222

METARs OBSOLETI :
  • 201524Z 26007KT 3/4SM VCTS +RA SCT022 BKN029 OVC036 24/23 A3009 RMK AO2 LTG DSNT SW RAB11 P0037 T02440233
  • 201453Z 31009KT 4SM VCTS FEW021 SCT026 BKN033 26/24 A3008 RMK AO2 WSHFT 1343 LTG DSNT ALQDS RAE11B22E40 TSB1358E15 SLP184 P0018 60027 T02560244 51014
  • 201415Z 28009KT 4SM VCTS BR FEW019 BKN026 OVC042 26/23 A3007 RMK AO2 WSHFT 1343 RAE11 TSB1358E15 P0002 T02560233
  • 201358Z 23013KT 3SM TSRA BR FEW016 SCT026 OVC040 26/23 A3008 RMK AO2 WSHFT 1343 LTG DSNT NW TSB58 P0002 T02560233
  • 201345Z 18010G26KT 1SM +TSRA BR SCT018 BKN028 BKN040 26/23 A3007 RMK AO2 PK WND 18026/1339 WSHFT 1252 LTG DSNT W RAB01 TSB38 P0006 T02560233
  • 201326Z 22013G18KT 2 1/2SM -RA FEW014 BKN031 OVC090 26/22 A3006 RMK AO2 WSHFT 1252 RAB01 P0000 T02610222
  • 201306Z 17010KT 6SM -RA FEW014 SCT025 BKN037 27/24 A3006 RMK AO2 WSHFT 1252 LTG DSNT NW RAB01 P0000 T02720239
  • 201253Z 12011KT 10SM FEW024 SCT030 BKN047 29/24 A3005 RMK AO2 LTG DSNT NW SLP175 T02940239

TAF KEYW
Valido dal 20 a 15 ore il 21 a 12 ore UTC


201505Z 2015/2112 31010KT P6SM VCTS FEW015CB SCT025 BKN030
FM201600 12010KT P6SM VCSH FEW020 SCT035
Nessun NOTAM noto per questo aeroporto.



MetMap, La meteo Aeronautica in un colpo d'occhio ! - Copyright ORBIFLY Dicembre 2007 - Disclaimer

ORBIFLY MET'MAP TEAM :

Programmazione e sviluppo : Alexandra Zaïnal
Concezione e sviluppo : Baudouin d'Aumeries
Co-Programmazione e sviluppo : Marc-Olivier Méhu
Supporto tecnico e logistico : Manuel Goepfert
Aiuto per la traduzione : Arnaldo La Scala

Contatto : metmap@orbifly.com




FONTI E CREDITI :

   NOAA       Earth
Advisory